sensor_id;sensor_type;location;lat;lon;timestamp;pressure;altitude;pressure_sealevel;temperature;humidity
63556;BME280;49700;48.072;7.800;2023-04-07T00:01:36;99515.34;;;10.20;56.49
63556;BME280;49700;48.072;7.800;2023-04-07T00:04:01;99516.94;;;10.23;56.39
63556;BME280;49700;48.072;7.800;2023-04-07T00:06:27;99516.94;;;10.23;56.53
63556;BME280;49700;48.072;7.800;2023-04-07T00:08:53;99522.19;;;10.23;56.47
63556;BME280;49700;48.072;7.800;2023-04-07T00:11:18;99510.22;;;10.19;56.59
63556;BME280;49700;48.072;7.800;2023-04-07T00:13:44;99509.47;;;10.17;56.56
63556;BME280;49700;48.072;7.800;2023-04-07T00:16:10;99518.28;;;10.16;56.71
63556;BME280;49700;48.072;7.800;2023-04-07T00:18:35;99509.75;;;10.12;57.18
63556;BME280;49700;48.072;7.800;2023-04-07T00:21:01;99506.38;;;10.10;57.38
63556;BME280;49700;48.072;7.800;2023-04-07T00:23:26;99510.88;;;10.08;57.43
63556;BME280;49700;48.072;7.800;2023-04-07T00:25:52;99505.72;;;10.07;57.34
63556;BME280;49700;48.072;7.800;2023-04-07T00:28:17;99513.50;;;10.08;57.45
63556;BME280;49700;48.072;7.800;2023-04-07T00:30:42;99500.38;;;10.08;57.72
63556;BME280;49700;48.072;7.800;2023-04-07T00:33:08;99495.03;;;10.10;57.54
63556;BME280;49700;48.072;7.800;2023-04-07T00:35:33;99493.91;;;10.14;58.38
63556;BME280;49700;48.072;7.800;2023-04-07T00:37:59;99492.94;;;10.15;58.40
63556;BME280;49700;48.072;7.800;2023-04-07T00:40:24;99489.41;;;10.16;58.29
63556;BME280;49700;48.072;7.800;2023-04-07T00:42:51;99485.84;;;10.17;58.15
63556;BME280;49700;48.072;7.800;2023-04-07T00:45:17;99483.50;;;10.12;58.23
63556;BME280;49700;48.072;7.800;2023-04-07T00:47:42;99484.94;;;10.04;58.35
63556;BME280;49700;48.072;7.800;2023-04-07T00:50:08;99475.78;;;9.96;58.51
63556;BME280;49700;48.072;7.800;2023-04-07T00:52:34;99474.34;;;9.91;58.77
63556;BME280;49700;48.072;7.800;2023-04-07T00:55:00;99477.38;;;9.85;58.64
63556;BME280;49700;48.072;7.800;2023-04-07T00:57:25;99469.69;;;9.82;58.82
63556;BME280;49700;48.072;7.800;2023-04-07T00:59:52;99467.06;;;9.82;58.77
63556;BME280;49700;48.072;7.800;2023-04-07T01:02:35;99460.88;;;9.83;58.55
63556;BME280;49700;48.072;7.800;2023-04-07T01:05:22;99460.25;;;9.79;58.72
63556;BME280;49700;48.072;7.800;2023-04-07T01:08:14;99467.34;;;9.77;58.81
63556;BME280;49700;48.072;7.800;2023-04-07T01:10:52;99457.72;;;9.78;58.77
63556;BME280;49700;48.072;7.800;2023-04-07T01:13:34;99459.28;;;9.80;58.74
63556;BME280;49700;48.072;7.800;2023-04-07T01:16:59;99462.59;;;9.84;58.53
63556;BME280;49700;48.072;7.800;2023-04-07T01:21:55;99452.66;;;9.89;58.53
63556;BME280;49700;48.072;7.800;2023-04-07T01:30:55;99448.59;;;9.97;58.17
63556;BME280;49700;48.072;7.800;2023-04-07T01:33:23;99446.72;;;10.00;58.17
63556;BME280;49700;48.072;7.800;2023-04-07T01:35:49;99445.69;;;10.02;58.57
63556;BME280;49700;48.072;7.800;2023-04-07T01:38:16;99442.19;;;10.02;58.39
63556;BME280;49700;48.072;7.800;2023-04-07T01:40:42;99435.47;;;9.97;58.67
63556;BME280;49700;48.072;7.800;2023-04-07T01:43:09;99429.59;;;9.94;58.90
63556;BME280;49700;48.072;7.800;2023-04-07T01:45:36;99433.13;;;9.93;58.87
63556;BME280;49700;48.072;7.800;2023-04-07T01:48:07;99427.78;;;9.94;58.71
63556;BME280;49700;48.072;7.800;2023-04-07T01:50:33;99423.31;;;9.96;58.79
63556;BME280;49700;48.072;7.800;2023-04-07T01:53:02;99418.06;;;9.96;58.83
63556;BME280;49700;48.072;7.800;2023-04-07T01:55:31;99415.44;;;9.96;58.76
63556;BME280;49700;48.072;7.800;2023-04-07T01:58:04;99408.28;;;9.98;58.83
63556;BME280;49700;48.072;7.800;2023-04-07T02:00:30;99402.19;;;9.98;58.97
63556;BME280;49700;48.072;7.800;2023-04-07T02:03:00;99403.34;;;9.94;59.08
63556;BME280;49700;48.072;7.800;2023-04-07T02:05:30;99403.63;;;9.89;59.20
63556;BME280;49700;48.072;7.800;2023-04-07T02:08:00;99398.59;;;9.86;59.26
63556;BME280;49700;48.072;7.800;2023-04-07T02:10:32;99396.16;;;9.83;59.23
63556;BME280;49700;48.072;7.800;2023-04-07T02:13:00;99394.56;;;9.81;59.38
63556;BME280;49700;48.072;7.800;2023-04-07T02:15:29;99391.19;;;9.79;59.28
63556;BME280;49700;48.072;7.800;2023-04-07T02:17:57;99388.66;;;9.77;59.22
63556;BME280;49700;48.072;7.800;2023-04-07T02:20:23;99388.03;;;9.73;59.46
63556;BME280;49700;48.072;7.800;2023-04-07T02:22:49;99383.06;;;9.69;59.65
63556;BME280;49700;48.072;7.800;2023-04-07T02:25:27;99386.84;;;9.65;59.90
63556;BME280;49700;48.072;7.800;2023-04-07T02:27:53;99381.88;;;9.60;60.17
63556;BME280;49700;48.072;7.800;2023-04-07T02:30:19;99380.41;;;9.56;60.29
63556;BME280;49700;48.072;7.800;2023-04-07T02:32:45;99368.59;;;9.49;60.81
63556;BME280;49700;48.072;7.800;2023-04-07T02:35:10;99360.56;;;9.38;61.18
63556;BME280;49700;48.072;7.800;2023-04-07T02:37:37;99360.22;;;9.29;61.33
63556;BME280;49700;48.072;7.800;2023-04-07T02:40:03;99357.88;;;9.25;61.56
63556;BME280;49700;48.072;7.800;2023-04-07T02:42:29;99353.84;;;9.19;61.63
63556;BME280;49700;48.072;7.800;2023-04-07T02:44:54;99356.56;;;9.18;61.66
63556;BME280;49700;48.072;7.800;2023-04-07T02:47:20;99362.75;;;9.17;61.84
63556;BME280;49700;48.072;7.800;2023-04-07T02:49:45;99371.56;;;9.16;61.93
63556;BME280;49700;48.072;7.800;2023-04-07T02:52:11;99371.72;;;9.13;62.26
63556;BME280;49700;48.072;7.800;2023-04-07T02:54:36;99374.84;;;9.05;62.32
63556;BME280;49700;48.072;7.800;2023-04-07T02:57:01;99374.34;;;8.98;62.48
63556;BME280;49700;48.072;7.800;2023-04-07T02:59:27;99368.34;;;8.96;62.66
63556;BME280;49700;48.072;7.800;2023-04-07T03:01:52;99370.13;;;8.96;62.56
63556;BME280;49700;48.072;7.800;2023-04-07T03:04:18;99363.97;;;8.97;62.71
63556;BME280;49700;48.072;7.800;2023-04-07T03:06:44;99358.75;;;8.97;62.53
63556;BME280;49700;48.072;7.800;2023-04-07T03:09:13;99361.25;;;8.98;62.62
63556;BME280;49700;48.072;7.800;2023-04-07T03:11:39;99355.81;;;9.01;62.44
63556;BME280;49700;48.072;7.800;2023-04-07T03:14:06;99358.44;;;9.01;62.76
63556;BME280;49700;48.072;7.800;2023-04-07T03:16:34;99359.19;;;9.03;62.53
63556;BME280;49700;48.072;7.800;2023-04-07T03:19:05;99355.53;;;9.06;62.66
63556;BME280;49700;48.072;7.800;2023-04-07T03:21:36;99358.91;;;9.08;62.42
63556;BME280;49700;48.072;7.800;2023-04-07T03:24:02;99360.50;;;9.11;62.52
63556;BME280;49700;48.072;7.800;2023-04-07T03:26:27;99356.88;;;9.13;62.44
63556;BME280;49700;48.072;7.800;2023-04-07T03:28:53;99353.22;;;9.16;62.41
63556;BME280;49700;48.072;7.800;2023-04-07T03:31:19;99354.88;;;9.17;62.33
63556;BME280;49700;48.072;7.800;2023-04-07T03:33:49;99357.44;;;9.18;62.44
63556;BME280;49700;48.072;7.800;2023-04-07T03:36:15;99355.63;;;9.19;62.39
63556;BME280;49700;48.072;7.800;2023-04-07T03:38:41;99342.41;;;9.20;62.61
63556;BME280;49700;48.072;7.800;2023-04-07T03:41:07;99349.38;;;9.21;62.66
63556;BME280;49700;48.072;7.800;2023-04-07T03:43:32;99338.88;;;9.21;62.46
63556;BME280;49700;48.072;7.800;2023-04-07T03:46:00;99332.97;;;9.18;62.63
63556;BME280;49700;48.072;7.800;2023-04-07T03:48:25;99336.75;;;9.14;62.82
63556;BME280;49700;48.072;7.800;2023-04-07T03:50:59;99333.34;;;9.12;62.97
63556;BME280;49700;48.072;7.800;2023-04-07T03:53:25;99327.16;;;9.13;62.85
63556;BME280;49700;48.072;7.800;2023-04-07T03:55:52;99327.94;;;9.15;62.77
63556;BME280;49700;48.072;7.800;2023-04-07T03:58:26;99328.69;;;9.17;62.59
63556;BME280;49700;48.072;7.800;2023-04-07T04:00:52;99332.81;;;9.21;62.54
63556;BME280;49700;48.072;7.800;2023-04-07T04:03:17;99324.00;;;9.22;62.41
63556;BME280;49700;48.072;7.800;2023-04-07T04:06:04;99320.44;;;9.23;62.37
63556;BME280;49700;48.072;7.800;2023-04-07T04:08:31;99323.81;;;9.25;62.37
63556;BME280;49700;48.072;7.800;2023-04-07T04:10:56;99321.94;;;9.27;62.45
63556;BME280;49700;48.072;7.800;2023-04-07T04:13:26;99319.19;;;9.28;62.15
63556;BME280;49700;48.072;7.800;2023-04-07T04:15:53;99315.66;;;9.29;62.04
63556;BME280;49700;48.072;7.800;2023-04-07T04:18:18;99317.25;;;9.32;62.13
63556;BME280;49700;48.072;7.800;2023-04-07T04:20:44;99315.47;;;9.33;62.10
63556;BME280;49700;48.072;7.800;2023-04-07T04:23:09;99315.53;;;9.31;62.29
63556;BME280;49700;48.072;7.800;2023-04-07T04:25:35;99315.00;;;9.26;62.17
63556;BME280;49700;48.072;7.800;2023-04-07T04:28:06;99305.00;;;9.18;62.65
63556;BME280;49700;48.072;7.800;2023-04-07T04:30:31;99310.94;;;9.07;63.00
63556;BME280;49700;48.072;7.800;2023-04-07T04:33:00;99303.72;;;8.97;63.40
63556;BME280;49700;48.072;7.800;2023-04-07T04:35:34;99310.91;;;8.93;64.05
63556;BME280;49700;48.072;7.800;2023-04-07T04:38:07;99301.00;;;8.84;64.76
63556;BME280;49700;48.072;7.800;2023-04-07T04:40:33;99304.19;;;8.75;64.79
63556;BME280;49700;48.072;7.800;2023-04-07T04:42:59;99306.06;;;8.73;64.79
63556;BME280;49700;48.072;7.800;2023-04-07T04:45:25;99297.28;;;8.74;64.70
63556;BME280;49700;48.072;7.800;2023-04-07T04:47:50;99308.50;;;8.76;64.58
63556;BME280;49700;48.072;7.800;2023-04-07T04:50:16;99307.66;;;8.75;64.51
63556;BME280;49700;48.072;7.800;2023-04-07T04:52:44;99311.31;;;8.73;64.41
63556;BME280;49700;48.072;7.800;2023-04-07T04:55:17;99309.53;;;8.73;64.42
63556;BME280;49700;48.072;7.800;2023-04-07T04:57:43;99302.44;;;8.75;64.22
63556;BME280;49700;48.072;7.800;2023-04-07T05:00:12;99311.75;;;8.79;63.95
63556;BME280;49700;48.072;7.800;2023-04-07T05:02:40;99304.66;;;8.81;64.00
63556;BME280;49700;48.072;7.800;2023-04-07T05:05:07;99306.34;;;8.82;64.02
63556;BME280;49700;48.072;7.800;2023-04-07T05:07:33;99309.06;;;8.81;64.00
63556;BME280;49700;48.072;7.800;2023-04-07T05:10:12;99313.34;;;8.82;64.04
63556;BME280;49700;48.072;7.800;2023-04-07T05:12:51;99314.00;;;8.85;63.94
63556;BME280;49700;48.072;7.800;2023-04-07T05:18:40;99316.72;;;8.98;63.64
63556;BME280;49700;48.072;7.800;2023-04-07T05:21:16;99312.69;;;9.21;63.34
63556;BME280;49700;48.072;7.800;2023-04-07T05:23:54;99311.88;;;9.48;62.67
63556;BME280;49700;48.072;7.800;2023-04-07T05:26:33;99317.81;;;9.64;62.08
63556;BME280;49700;48.072;7.800;2023-04-07T05:29:05;99330.53;;;9.70;61.84
63556;BME280;49700;48.072;7.800;2023-04-07T05:31:48;99313.28;;;9.66;61.71
63556;BME280;49700;48.072;7.800;2023-04-07T05:34:36;99326.25;;;9.55;62.19
63556;BME280;49700;48.072;7.800;2023-04-07T05:37:30;99324.50;;;9.41;62.53
63556;BME280;49700;48.072;7.800;2023-04-07T05:40:02;99321.53;;;9.33;62.83
63556;BME280;49700;48.072;7.800;2023-04-07T05:42:56;99323.59;;;9.28;62.87
63556;BME280;49700;48.072;7.800;2023-04-07T05:45:30;99320.22;;;9.26;63.13
63556;BME280;49700;48.072;7.800;2023-04-07T05:47:56;99327.19;;;9.27;62.86
63556;BME280;49700;48.072;7.800;2023-04-07T05:50:37;99326.16;;;9.29;62.94
63556;BME280;49700;48.072;7.800;2023-04-07T05:53:14;99325.13;;;9.32;62.87
63556;BME280;49700;48.072;7.800;2023-04-07T05:55:42;99322.28;;;9.35;62.88
63556;BME280;49700;48.072;7.800;2023-04-07T05:58:39;99320.31;;;9.39;62.78
63556;BME280;49700;48.072;7.800;2023-04-07T06:01:20;99320.22;;;9.40;62.71
63556;BME280;49700;48.072;7.800;2023-04-07T06:03:57;99322.84;;;9.40;62.59
63556;BME280;49700;48.072;7.800;2023-04-07T06:06:49;99317.69;;;9.39;62.33
63556;BME280;49700;48.072;7.800;2023-04-07T06:09:33;99323.69;;;9.41;62.32
63556;BME280;49700;48.072;7.800;2023-04-07T06:12:11;99325.28;;;9.43;62.39
63556;BME280;49700;48.072;7.800;2023-04-07T06:15:02;99335.00;;;9.41;63.12
63556;BME280;49700;48.072;7.800;2023-04-07T06:17:36;99338.22;;;9.32;63.38
63556;BME280;49700;48.072;7.800;2023-04-07T06:20:18;99340.28;;;9.27;63.36
63556;BME280;49700;48.072;7.800;2023-04-07T06:22:56;99346.34;;;9.27;63.10
63556;BME280;49700;48.072;7.800;2023-04-07T06:25:26;99340.09;;;9.30;63.15
63556;BME280;49700;48.072;7.800;2023-04-07T06:28:01;99343.25;;;9.35;62.85
63556;BME280;49700;48.072;7.800;2023-04-07T06:30:37;99344.53;;;9.42;63.07
63556;BME280;49700;48.072;7.800;2023-04-07T06:33:09;99357.38;;;9.47;62.48
63556;BME280;49700;48.072;7.800;2023-04-07T06:35:41;99356.25;;;9.51;62.66
63556;BME280;49700;48.072;7.800;2023-04-07T06:38:09;99359.44;;;9.56;62.67
63556;BME280;49700;48.072;7.800;2023-04-07T06:40:39;99362.75;;;9.58;62.88
63556;BME280;49700;48.072;7.800;2023-04-07T06:43:12;99354.81;;;9.60;62.56
63556;BME280;49700;48.072;7.800;2023-04-07T06:45:48;99357.31;;;9.61;62.58
63556;BME280;49700;48.072;7.800;2023-04-07T06:48:23;99353.66;;;9.64;62.39
63556;BME280;49700;48.072;7.800;2023-04-07T06:50:59;99360.50;;;9.66;62.28
63556;BME280;49700;48.072;7.800;2023-04-07T06:53:34;99358.75;;;9.67;62.27
63556;BME280;49700;48.072;7.800;2023-04-07T06:56:14;99357.78;;;9.68;62.26
63556;BME280;49700;48.072;7.800;2023-04-07T06:58:42;99354.97;;;9.71;62.15
63556;BME280;49700;48.072;7.800;2023-04-07T07:01:29;99359.72;;;9.79;61.84
63556;BME280;49700;48.072;7.800;2023-04-07T07:04:19;99362.91;;;9.84;61.61
63556;BME280;49700;48.072;7.800;2023-04-07T07:06:45;99360.63;;;9.92;61.70
63556;BME280;49700;48.072;7.800;2023-04-07T07:09:25;99364.63;;;9.97;61.68
63556;BME280;49700;48.072;7.800;2023-04-07T07:12:03;99361.59;;;10.04;61.50
63556;BME280;49700;48.072;7.800;2023-04-07T07:14:36;99367.19;;;10.12;61.18
63556;BME280;49700;48.072;7.800;2023-04-07T07:17:20;99367.72;;;10.17;61.29
63556;BME280;49700;48.072;7.800;2023-04-07T07:20:01;99371.84;;;10.21;61.02
63556;BME280;49700;48.072;7.800;2023-04-07T07:22:34;99374.09;;;10.27;60.86
63556;BME280;49700;48.072;7.800;2023-04-07T07:25:11;99375.03;;;10.39;60.50
63556;BME280;49700;48.072;7.800;2023-04-07T07:28:03;99374.03;;;10.54;60.67
63556;BME280;49700;48.072;7.800;2023-04-07T07:30:40;99370.69;;;10.65;60.34
63556;BME280;49700;48.072;7.800;2023-04-07T07:33:25;99373.53;;;10.75;60.20
63556;BME280;49700;48.072;7.800;2023-04-07T07:36:28;99376.16;;;10.88;59.73
63556;BME280;49700;48.072;7.800;2023-04-07T07:39:06;99375.09;;;10.90;59.47
63556;BME280;49700;48.072;7.800;2023-04-07T07:41:37;99386.13;;;10.95;59.44
63556;BME280;49700;48.072;7.800;2023-04-07T07:44:13;99387.06;;;11.07;59.33
63556;BME280;49700;48.072;7.800;2023-04-07T07:46:41;99382.84;;;11.17;58.86
63556;BME280;49700;48.072;7.800;2023-04-07T07:49:33;99379.06;;;11.34;58.50
63556;BME280;49700;48.072;7.800;2023-04-07T07:52:10;99382.16;;;11.52;58.05
63556;BME280;49700;48.072;7.800;2023-04-07T07:55:08;99383.38;;;11.72;57.31
63556;BME280;49700;48.072;7.800;2023-04-07T07:57:46;99384.50;;;11.81;56.88
63556;BME280;49700;48.072;7.800;2023-04-07T08:00:17;99380.81;;;11.83;56.75
63556;BME280;49700;48.072;7.800;2023-04-07T08:03:09;99385.75;;;11.88;56.29
63556;BME280;49700;48.072;7.800;2023-04-07T08:05:48;99389.97;;;11.90;55.90
63556;BME280;49700;48.072;7.800;2023-04-07T08:08:21;99393.22;;;11.94;55.56
63556;BME280;49700;48.072;7.800;2023-04-07T08:11:07;99403.53;;;11.97;55.42
63556;BME280;49700;48.072;7.800;2023-04-07T08:13:36;99400.91;;;11.97;55.24
63556;BME280;49700;48.072;7.800;2023-04-07T08:16:04;99411.66;;;11.94;54.88
63556;BME280;49700;48.072;7.800;2023-04-07T08:18:33;99421.00;;;11.85;54.24
63556;BME280;49700;48.072;7.800;2023-04-07T08:20:58;99420.84;;;11.76;54.08
63556;BME280;49700;48.072;7.800;2023-04-07T08:23:38;99418.44;;;11.72;54.27
63556;BME280;49700;48.072;7.800;2023-04-07T08:26:06;99424.41;;;11.74;54.25
63556;BME280;49700;48.072;7.800;2023-04-07T08:28:34;99429.25;;;11.81;54.33
63556;BME280;49700;48.072;7.800;2023-04-07T08:31:15;99432.31;;;11.87;54.23
63556;BME280;49700;48.072;7.800;2023-04-07T08:33:41;99430.31;;;11.91;54.31
63556;BME280;49700;48.072;7.800;2023-04-07T08:36:09;99432.34;;;11.99;54.59
63556;BME280;49700;48.072;7.800;2023-04-07T08:38:37;99432.72;;;11.94;54.69
63556;BME280;49700;48.072;7.800;2023-04-07T08:41:12;99436.63;;;11.88;55.06
63556;BME280;49700;48.072;7.800;2023-04-07T08:43:43;99443.16;;;11.83;55.59
63556;BME280;49700;48.072;7.800;2023-04-07T08:46:11;99445.03;;;11.81;55.59
63556;BME280;49700;48.072;7.800;2023-04-07T08:48:45;99448.41;;;11.83;55.97
63556;BME280;49700;48.072;7.800;2023-04-07T08:51:45;99452.59;;;11.85;56.30
63556;BME280;49700;48.072;7.800;2023-04-07T08:54:24;99454.19;;;11.88;56.32
63556;BME280;49700;48.072;7.800;2023-04-07T08:57:01;99464.00;;;11.86;56.86
63556;BME280;49700;48.072;7.800;2023-04-07T08:59:30;99468.59;;;11.82;57.12
63556;BME280;49700;48.072;7.800;2023-04-07T09:02:10;99464.50;;;11.78;57.46
63556;BME280;49700;48.072;7.800;2023-04-07T09:04:35;99464.97;;;11.72;57.77
63556;BME280;49700;48.072;7.800;2023-04-07T09:07:04;99475.06;;;11.65;58.30
63556;BME280;49700;48.072;7.800;2023-04-07T09:09:40;99479.78;;;11.60;58.97
63556;BME280;49700;48.072;7.800;2023-04-07T09:12:08;99477.59;;;11.54;59.52
63556;BME280;49700;48.072;7.800;2023-04-07T09:14:33;99479.72;;;11.49;59.84
63556;BME280;49700;48.072;7.800;2023-04-07T09:17:02;99478.34;;;11.43;60.28
63556;BME280;49700;48.072;7.800;2023-04-07T09:19:33;99480.44;;;11.38;60.92
63556;BME280;49700;48.072;7.800;2023-04-07T09:22:04;99484.97;;;11.36;61.24
63556;BME280;49700;48.072;7.800;2023-04-07T09:24:33;99483.16;;;11.37;61.48
63556;BME280;49700;48.072;7.800;2023-04-07T09:27:14;99481.72;;;11.33;61.70
63556;BME280;49700;48.072;7.800;2023-04-07T09:29:45;99480.44;;;11.25;62.26
63556;BME280;49700;48.072;7.800;2023-04-07T09:32:35;99489.72;;;11.18;62.63
63556;BME280;49700;48.072;7.800;2023-04-07T09:35:14;99484.84;;;11.12;62.93
63556;BME280;49700;48.072;7.800;2023-04-07T09:37:42;99498.94;;;11.11;63.01
63556;BME280;49700;48.072;7.800;2023-04-07T09:40:28;99496.75;;;11.05;63.20
63556;BME280;49700;48.072;7.800;2023-04-07T09:43:04;99494.94;;;11.05;63.10
63556;BME280;49700;48.072;7.800;2023-04-07T09:45:33;99504.41;;;11.08;62.89
63556;BME280;49700;48.072;7.800;2023-04-07T09:48:04;99496.75;;;11.05;62.42
63556;BME280;49700;48.072;7.800;2023-04-07T09:50:40;99497.28;;;11.10;62.11
63556;BME280;49700;48.072;7.800;2023-04-07T09:53:14;99504.75;;;11.16;61.61
63556;BME280;49700;48.072;7.800;2023-04-07T09:55:56;99500.63;;;11.25;61.24
63556;BME280;49700;48.072;7.800;2023-04-07T09:58:30;99502.84;;;11.31;61.01
63556;BME280;49700;48.072;7.800;2023-04-07T10:01:03;99504.13;;;11.38;60.53
63556;BME280;49700;48.072;7.800;2023-04-07T10:03:38;99499.59;;;11.40;60.18
63556;BME280;49700;48.072;7.800;2023-04-07T10:06:06;99504.53;;;11.45;60.21
63556;BME280;49700;48.072;7.800;2023-04-07T10:08:49;99499.25;;;11.58;60.20
63556;BME280;49700;48.072;7.800;2023-04-07T10:11:18;99500.84;;;11.73;60.01
63556;BME280;49700;48.072;7.800;2023-04-07T10:13:47;99494.53;;;11.88;59.85
63556;BME280;49700;48.072;7.800;2023-04-07T10:16:30;99496.19;;;12.02;59.67
63556;BME280;49700;48.072;7.800;2023-04-07T10:19:07;99501.84;;;12.09;59.33
63556;BME280;49700;48.072;7.800;2023-04-07T10:21:38;99500.78;;;12.11;58.99
63556;BME280;49700;48.072;7.800;2023-04-07T10:27:29;99509.97;;;11.93;59.17
63556;BME280;49700;48.072;7.800;2023-04-07T10:30:03;99509.03;;;11.94;59.27
63556;BME280;49700;48.072;7.800;2023-04-07T10:33:10;99511.91;;;11.91;59.14
63556;BME280;49700;48.072;7.800;2023-04-07T10:36:16;99518.81;;;11.79;59.18
63556;BME280;49700;48.072;7.800;2023-04-07T10:39:26;99525.66;;;11.69;59.56
63556;BME280;49700;48.072;7.800;2023-04-07T10:43:01;99520.97;;;11.61;59.57
63556;BME280;49700;48.072;7.800;2023-04-07T10:50:14;99531.03;;;11.42;60.08
63556;BME280;49700;48.072;7.800;2023-04-07T11:33:00;99545.25;;;11.26;61.42
63556;BME280;49700;48.072;7.800;2023-04-07T11:39:29;99543.16;;;11.57;61.02
63556;BME280;49700;48.072;7.800;2023-04-07T11:42:57;99540.59;;;11.81;60.33
63556;BME280;49700;48.072;7.800;2023-04-07T11:46:17;99546.59;;;11.96;59.63
63556;BME280;49700;48.072;7.800;2023-04-07T11:57:39;99548.50;;;11.68;59.28
63556;BME280;49700;48.072;7.800;2023-04-07T12:01:12;99554.50;;;11.70;59.12
63556;BME280;49700;48.072;7.800;2023-04-07T12:49:00;99564.69;;;11.37;58.85
63556;BME280;49700;48.072;7.800;2023-04-07T12:51:25;99566.69;;;11.33;58.77
63556;BME280;49700;48.072;7.800;2023-04-07T12:53:51;99565.13;;;11.30;58.75
63556;BME280;49700;48.072;7.800;2023-04-07T12:56:18;99566.69;;;11.33;58.87
63556;BME280;49700;48.072;7.800;2023-04-07T12:58:46;99561.66;;;11.30;59.02
63556;BME280;49700;48.072;7.800;2023-04-07T13:01:12;99563.31;;;11.31;59.16
63556;BME280;49700;48.072;7.800;2023-04-07T13:03:38;99562.59;;;11.29;59.20
63556;BME280;49700;48.072;7.800;2023-04-07T13:06:04;99559.13;;;11.28;59.10
63556;BME280;49700;48.072;7.800;2023-04-07T13:08:30;99561.03;;;11.26;59.04
63556;BME280;49700;48.072;7.800;2023-04-07T13:10:56;99563.66;;;11.26;59.27
63556;BME280;49700;48.072;7.800;2023-04-07T13:13:22;99562.91;;;11.24;59.21
63556;BME280;49700;48.072;7.800;2023-04-07T13:15:47;99570.78;;;11.24;59.39
63556;BME280;49700;48.072;7.800;2023-04-07T13:18:13;99565.25;;;11.29;59.28
63556;BME280;49700;48.072;7.800;2023-04-07T13:20:38;99567.53;;;11.34;59.39
63556;BME280;49700;48.072;7.800;2023-04-07T13:23:04;99560.84;;;11.42;59.20
63556;BME280;49700;48.072;7.800;2023-04-07T13:25:29;99561.16;;;11.50;58.96
63556;BME280;49700;48.072;7.800;2023-04-07T13:27:55;99558.19;;;11.55;58.88
63556;BME280;49700;48.072;7.800;2023-04-07T13:30:21;99561.56;;;11.57;58.65
63556;BME280;49700;48.072;7.800;2023-04-07T13:32:46;99558.94;;;11.57;58.68
63556;BME280;49700;48.072;7.800;2023-04-07T13:35:16;99560.81;;;11.55;58.80
63556;BME280;49700;48.072;7.800;2023-04-07T13:37:42;99560.81;;;11.55;58.90
63556;BME280;49700;48.072;7.800;2023-04-07T13:40:09;99565.88;;;11.58;58.97
63556;BME280;49700;48.072;7.800;2023-04-07T13:42:38;99555.66;;;11.66;58.85
63556;BME280;49700;48.072;7.800;2023-04-07T13:45:03;99553.69;;;11.70;58.79
63556;BME280;49700;48.072;7.800;2023-04-07T13:47:29;99549.03;;;11.73;58.86
63556;BME280;49700;48.072;7.800;2023-04-07T13:49:59;99547.66;;;11.81;58.78
63556;BME280;49700;48.072;7.800;2023-04-07T13:52:24;99558.09;;;11.95;58.45
63556;BME280;49700;48.072;7.800;2023-04-07T13:54:49;99550.63;;;12.02;58.28
63556;BME280;49700;48.072;7.800;2023-04-07T13:57:15;99553.25;;;12.02;58.30
63556;BME280;49700;48.072;7.800;2023-04-07T13:59:48;99551.47;;;12.02;58.43
63556;BME280;49700;48.072;7.800;2023-04-07T14:02:16;99543.44;;;12.04;58.56
63556;BME280;49700;48.072;7.800;2023-04-07T14:04:42;99544.28;;;12.04;58.48
63556;BME280;49700;48.072;7.800;2023-04-07T14:07:07;99545.22;;;12.03;58.49
63556;BME280;49700;48.072;7.800;2023-04-07T14:09:33;99543.13;;;11.95;58.82
63556;BME280;49700;48.072;7.800;2023-04-07T14:11:58;99543.47;;;11.91;59.05
63556;BME280;49700;48.072;7.800;2023-04-07T14:14:24;99540.13;;;11.89;59.11
63556;BME280;49700;48.072;7.800;2023-04-07T14:16:49;99545.38;;;11.89;59.02
63556;BME280;49700;48.072;7.800;2023-04-07T14:19:19;99537.56;;;11.87;58.98
63556;BME280;49700;48.072;7.800;2023-04-07T14:21:44;99544.81;;;11.84;59.07
63556;BME280;49700;48.072;7.800;2023-04-07T14:24:10;99540.53;;;11.83;59.26
63556;BME280;49700;48.072;7.800;2023-04-07T14:26:35;99542.00;;;11.87;58.95
63556;BME280;49700;48.072;7.800;2023-04-07T14:29:03;99537.47;;;11.89;58.78
63556;BME280;49700;48.072;7.800;2023-04-07T14:31:29;99535.59;;;11.91;58.68
63556;BME280;49700;48.072;7.800;2023-04-07T14:33:54;99539.66;;;11.95;58.68
63556;BME280;49700;48.072;7.800;2023-04-07T14:36:20;99536.06;;;11.96;58.50
63556;BME280;49700;48.072;7.800;2023-04-07T14:38:45;99535.88;;;11.99;58.51
63556;BME280;49700;48.072;7.800;2023-04-07T14:41:11;99539.97;;;12.03;58.25
63556;BME280;49700;48.072;7.800;2023-04-07T14:43:37;99538.81;;;12.07;57.85
63556;BME280;49700;48.072;7.800;2023-04-07T14:46:04;99533.66;;;12.06;57.43
63556;BME280;49700;48.072;7.800;2023-04-07T14:48:29;99536.38;;;12.04;57.61
63556;BME280;49700;48.072;7.800;2023-04-07T14:50:55;99534.94;;;12.00;57.65
63556;BME280;49700;48.072;7.800;2023-04-07T14:53:20;99535.88;;;11.99;57.66
63556;BME280;49700;48.072;7.800;2023-04-07T14:55:46;99543.78;;;11.99;57.83
63556;BME280;49700;48.072;7.800;2023-04-07T14:58:12;99537.88;;;11.95;57.60
63556;BME280;49700;48.072;7.800;2023-04-07T15:00:37;99539.91;;;11.92;57.99
63556;BME280;49700;48.072;7.800;2023-04-07T15:03:03;99542.31;;;11.95;57.96
63556;BME280;49700;48.072;7.800;2023-04-07T15:05:29;99533.88;;;12.03;57.79
63556;BME280;49700;48.072;7.800;2023-04-07T15:07:54;99536.06;;;12.09;57.83
63556;BME280;49700;48.072;7.800;2023-04-07T15:10:20;99541.22;;;12.10;57.55
63556;BME280;49700;48.072;7.800;2023-04-07T15:12:45;99532.28;;;12.13;57.17
63556;BME280;49700;48.072;7.800;2023-04-07T15:15:12;99539.00;;;12.17;56.90
63556;BME280;49700;48.072;7.800;2023-04-07T15:17:37;99541.63;;;12.17;56.86
63556;BME280;49700;48.072;7.800;2023-04-07T15:20:03;99547.25;;;12.12;56.94
63556;BME280;49700;48.072;7.800;2023-04-07T15:22:28;99548.28;;;12.10;57.05
63556;BME280;49700;48.072;7.800;2023-04-07T15:24:55;99548.16;;;12.11;56.91
63556;BME280;49700;48.072;7.800;2023-04-07T15:27:20;99544.38;;;12.15;56.96
63556;BME280;49700;48.072;7.800;2023-04-07T15:29:45;99543.66;;;12.13;56.87